Time;durP1;ratioP1;P1;durP2;ratioP2;P2;SDS_P1;SDS_P2;PMS_P1;PMS_P2;Temp;Humidity;BMP_temperature;BMP_pressure;BME280_temperature;BME280_humidity;BME280_pressure;Samples;Min_cycle;Max_cycle;Signal;HPM_P1;HPM_P2
2022/11/03 00:02:16;;;;;;;10.33;5.03;;;8.30;1.00;;;;;;5081439;28;20426;-56
2022/11/03 00:04:42;;;;;;;8.17;4.40;;;8.30;1.00;;;;;;5088202;28;21068;-56
2022/11/03 00:07:08;;;;;;;7.20;4.97;;;8.20;1.00;;;;;;5083855;28;20441;-56
2022/11/03 00:09:34;;;;;;;8.40;5.73;;;8.00;1.00;;;;;;5087024;28;20563;-56
2022/11/03 00:12:00;;;;;;;6.53;5.13;;;8.10;1.00;;;;;;5084143;28;20782;-56
2022/11/03 00:14:26;;;;;;;6.20;4.23;;;8.10;1.00;;;;;;5086943;28;20561;-57
2022/11/03 00:16:53;;;;;;;8.57;5.27;;;8.10;1.00;;;;;;5084194;28;20563;-56
2022/11/03 00:19:19;;;;;;;8.70;4.80;;;;;;;;;;5088247;28;20463;-56
2022/11/03 00:21:45;;;;;;;9.07;4.90;;;8.10;1.00;;;;;;5090030;28;20871;-56
2022/11/03 00:24:11;;;;;;;8.23;4.80;;;8.10;1.00;;;;;;5093060;28;20466;-56
2022/11/03 00:26:37;;;;;;;8.07;4.70;;;8.20;1.00;;;;;;5086087;28;20448;-57
2022/11/03 00:29:08;;;;;;;8.10;4.37;;;8.20;1.00;;;;;;5089990;28;20477;-56
2022/11/03 00:31:36;;;;;;;6.63;4.50;;;8.20;1.00;;;;;;5088752;28;20443;-55
2022/11/03 00:34:04;;;;;;;7.00;4.37;;;8.20;1.00;;;;;;5090100;28;20450;-56
2022/11/03 00:36:32;;;;;;;7.90;5.00;;;8.20;1.00;;;;;;5088782;28;20772;-57
2022/11/03 00:38:58;;;;;;;9.37;5.67;;;;;;;;;;5091332;28;20462;-55
2022/11/03 00:41:25;;;;;;;4.90;4.30;;;8.10;1.00;;;;;;5086228;28;20454;-55
2022/11/03 00:43:52;;;;;;;6.40;5.20;;;8.20;1.00;;;;;;5087734;28;21388;-56
2022/11/03 00:46:19;;;;;;;10.60;4.87;;;8.10;1.00;;;;;;5085218;28;20464;-57
2022/11/03 00:48:45;;;;;;;6.03;4.73;;;8.20;1.00;;;;;;5089337;28;21373;-56
2022/11/03 00:51:11;;;;;;;9.13;4.97;;;;;;;;;;5090294;28;20439;-56
2022/11/03 00:53:45;;;;;;;6.67;4.63;;;8.10;1.00;;;;;;5092521;28;20213;-56
2022/11/03 00:56:13;;;;;;;7.50;5.17;;;8.00;1.00;;;;;;5088791;28;20427;-56
2022/11/03 00:58:41;;;;;;;8.00;4.70;;;8.10;1.00;;;;;;5088381;28;20426;-56
2022/11/03 01:01:09;;;;;;;5.70;4.47;;;8.00;1.00;;;;;;5092214;28;20451;-56
2022/11/03 01:03:36;;;;;;;7.83;4.70;;;8.00;1.00;;;;;;5088483;28;20485;-57
2022/11/03 01:08:50;;;;;;;5.80;4.20;;;7.90;1.00;;;;;;5089755;28;20822;-55
2022/11/03 01:14:03;;;;;;;7.90;5.87;;;7.90;1.00;;;;;;5081508;28;20196;-56
2022/11/03 01:16:30;;;;;;;6.50;5.03;;;7.90;1.00;;;;;;5088599;28;20425;-56
2022/11/03 01:18:56;;;;;;;9.77;5.53;;;8.10;1.00;;;;;;5089272;28;20417;-55
2022/11/03 01:21:22;;;;;;;9.33;5.37;;;8.20;1.00;;;;;;5089422;28;20524;-56
2022/11/03 01:23:48;;;;;;;7.97;4.40;;;8.20;1.00;;;;;;5091801;28;20259;-56
2022/11/03 01:26:15;;;;;;;6.60;5.43;;;8.30;1.00;;;;;;5090568;28;20747;-56
2022/11/03 01:28:43;;;;;;;10.53;5.70;;;8.20;1.00;;;;;;5088729;28;20458;-55
2022/11/03 01:31:18;;;;;;;7.73;5.33;;;8.00;1.00;;;;;;5088181;28;20882;-56
2022/11/03 01:33:45;;;;;;;8.00;5.30;;;8.00;1.00;;;;;;5090838;28;20522;-56
2022/11/03 01:36:12;;;;;;;6.43;4.40;;;7.90;1.00;;;;;;5088829;28;20504;-57
2022/11/03 01:38:38;;;;;;;6.67;4.50;;;7.90;1.00;;;;;;5090452;28;20466;-55
2022/11/03 01:41:06;;;;;;;9.33;5.70;;;7.90;1.00;;;;;;5083621;28;20453;-56
2022/11/03 01:43:32;;;;;;;11.27;6.60;;;7.90;1.00;;;;;;5087789;28;20870;-56
2022/11/03 01:46:08;;;;;;;9.83;5.17;;;7.90;1.00;;;;;;5082316;28;20546;-55
2022/11/03 01:48:35;;;;;;;7.70;5.00;;;7.90;1.00;;;;;;5087510;28;20201;-56
2022/11/03 01:51:03;;;;;;;8.43;6.00;;;7.90;1.00;;;;;;5088386;28;20455;-55
2022/11/03 01:53:30;;;;;;;7.47;5.83;;;7.90;1.00;;;;;;5089694;28;20482;-56
2022/11/03 01:55:56;;;;;;;11.67;5.60;;;7.80;1.00;;;;;;5089350;28;20451;-55
2022/11/03 01:58:28;;;;;;;10.93;5.17;;;7.80;1.00;;;;;;5088924;28;21077;-57
2022/11/03 02:00:58;;;;;;;6.97;5.37;;;7.90;1.00;;;;;;5086911;28;20452;-56
2022/11/03 02:03:25;;;;;;;8.90;4.30;;;7.80;1.00;;;;;;5085398;28;20470;-57
2022/11/03 02:05:52;;;;;;;6.90;4.70;;;7.80;1.00;;;;;;5086871;28;20470;-56
2022/11/03 02:08:24;;;;;;;8.67;5.53;;;7.80;1.00;;;;;;5089166;28;20458;-55
2022/11/03 02:10:50;;;;;;;6.87;5.60;;;7.80;1.00;;;;;;5088638;28;20517;-56
2022/11/03 02:13:25;;;;;;;9.73;4.40;;;7.80;1.00;;;;;;5089419;28;20508;-55
2022/11/03 02:15:55;;;;;;;5.80;5.00;;;7.80;1.00;;;;;;5084365;28;20499;-55
2022/11/03 02:18:27;;;;;;;11.30;5.20;;;7.70;1.00;;;;;;5087758;28;20927;-58
2022/11/03 02:21:16;;;;;;;8.43;5.00;;;7.70;1.00;;;;;;5089364;28;20966;-55
2022/11/03 02:23:56;;;;;;;9.83;5.23;;;7.70;1.00;;;;;;5085822;28;20991;-55
2022/11/03 02:26:22;;;;;;;7.43;4.83;;;7.70;1.00;;;;;;5088684;28;20535;-56
2022/11/03 02:28:48;;;;;;;6.17;4.73;;;7.70;1.00;;;;;;5084553;28;20553;-55
2022/11/03 02:31:32;;;;;;;7.27;4.90;;;7.70;1.00;;;;;;5089040;28;20201;-56
2022/11/03 02:34:00;;;;;;;8.03;4.70;;;7.70;1.00;;;;;;5087861;28;20249;-54
2022/11/03 02:36:26;;;;;;;9.20;5.30;;;7.70;1.00;;;;;;5089526;28;20437;-57
2022/11/03 02:39:15;;;;;;;7.40;4.80;;;7.70;1.00;;;;;;5082160;28;20444;-56
2022/11/03 02:41:42;;;;;;;6.70;5.17;;;7.70;1.00;;;;;;5087777;28;20505;-56
2022/11/03 02:44:17;;;;;;;6.43;4.97;;;7.60;1.00;;;;;;5087841;28;20564;-56
2022/11/03 02:46:45;;;;;;;7.50;4.63;;;7.60;1.00;;;;;;5086288;28;20976;-56
2022/11/03 02:49:11;;;;;;;7.40;4.77;;;7.60;1.00;;;;;;5087221;28;20463;-55
2022/11/03 02:51:37;;;;;;;8.40;4.90;;;7.50;1.00;;;;;;5088115;28;21191;-56
2022/11/03 02:54:13;;;;;;;14.53;5.07;;;7.50;1.00;;;;;;5088158;28;20627;-55
2022/11/03 02:56:48;;;;;;;12.33;4.93;;;7.50;1.00;;;;;;5087502;28;20197;-56
2022/11/03 02:59:18;;;;;;;11.90;6.40;;;7.60;1.00;;;;;;5087925;28;20474;-56
2022/11/03 03:02:00;;;;;;;6.50;4.63;;;7.50;1.00;;;;;;5089293;28;20451;-60
2022/11/03 03:04:34;;;;;;;9.27;5.20;;;7.50;1.00;;;;;;5087524;28;20623;-58
2022/11/03 03:07:26;;;;;;;7.53;5.53;;;7.50;1.00;;;;;;5087998;28;20483;-60
2022/11/03 03:10:06;;;;;;;5.83;4.40;;;7.40;1.00;;;;;;5081428;28;20478;-58
2022/11/03 03:12:34;;;;;;;10.73;5.50;;;7.40;1.00;;;;;;5086314;28;20490;-60
2022/11/03 03:15:02;;;;;;;6.47;4.93;;;7.40;1.00;;;;;;5076420;28;20448;-58
2022/11/03 03:17:50;;;;;;;9.07;5.33;;;7.40;1.00;;;;;;5084399;28;20413;-59
2022/11/03 03:20:30;;;;;;;9.97;4.70;;;7.30;1.00;;;;;;5087176;28;20454;-59
2022/11/03 03:23:19;;;;;;;7.67;4.80;;;8.00;1.00;;;;;;5087720;28;20519;-59
2022/11/03 03:26:10;;;;;;;7.10;5.87;;;7.20;1.00;;;;;;5087173;28;20452;-59
2022/11/03 03:28:48;;;;;;;7.97;4.80;;;7.30;1.00;;;;;;5083001;28;20461;-58
2022/11/03 03:31:17;;;;;;;6.50;5.50;;;7.20;1.00;;;;;;5087102;28;20520;-59
2022/11/03 03:33:45;;;;;;;10.60;5.27;;;7.20;1.00;;;;;;5085900;28;20455;-60
2022/11/03 03:36:14;;;;;;;13.47;5.90;;;7.20;1.00;;;;;;5086476;28;20435;-59
2022/11/03 03:38:45;;;;;;;8.80;5.33;;;7.30;1.00;;;;;;5084384;28;20434;-60
2022/11/03 03:41:20;;;;;;;9.67;5.50;;;7.30;1.00;;;;;;5086841;28;20455;-59
2022/11/03 03:43:54;;;;;;;8.57;5.03;;;7.30;1.00;;;;;;5084926;28;20851;-60
2022/11/03 03:46:22;;;;;;;9.47;4.90;;;7.30;1.00;;;;;;5086249;28;20451;-60
2022/11/03 03:48:48;;;;;;;7.13;5.60;;;7.30;1.00;;;;;;5087440;28;20451;-60
2022/11/03 03:51:17;;;;;;;7.93;6.00;;;7.30;1.00;;;;;;5091499;28;20467;-60
2022/11/03 03:53:42;;;;;;;5.60;5.00;;;7.30;1.00;;;;;;5088730;28;20217;-58
2022/11/03 03:56:08;;;;;;;6.33;5.17;;;7.30;1.00;;;;;;5089668;28;20952;-59
2022/11/03 03:58:33;;;;;;;7.20;4.87;;;7.30;1.00;;;;;;5088284;28;20190;-58
2022/11/03 04:00:59;;;;;;;6.83;4.37;;;7.30;1.00;;;;;;5091356;28;20201;-59
2022/11/03 04:03:25;;;;;;;9.57;5.23;;;7.10;1.00;;;;;;5087421;28;20194;-59
2022/11/03 04:05:52;;;;;;;7.93;4.70;;;7.20;1.00;;;;;;5089833;28;20216;-59
2022/11/03 04:08:18;;;;;;;7.20;4.83;;;7.10;1.00;;;;;;5088109;28;20454;-59
2022/11/03 04:22:24;;;;;;;8.50;4.53;;;;;;;;;;5089402;28;20847;-59
2022/11/03 04:24:31;;;;;;;7.57;5.50;;;7.00;1.00;;;;;;5080881;28;20451;-59
2022/11/03 04:27:04;;;;;;;15.23;5.50;;;7.00;1.00;;;;;;5088932;28;20443;-59
2022/11/03 04:29:30;;;;;;;10.13;6.50;;;6.90;1.00;;;;;;5082794;28;20642;-59
2022/11/03 04:31:56;;;;;;;8.10;6.37;;;6.90;1.00;;;;;;5090121;28;20543;-58
2022/11/03 04:34:27;;;;;;;8.60;5.80;;;;;;;;;;5088185;28;20197;-58
2022/11/03 04:36:52;;;;;;;12.97;6.00;;;7.00;1.00;;;;;;5089791;28;20525;-58
2022/11/03 04:39:20;;;;;;;9.00;6.00;;;7.00;1.00;;;;;;5087827;28;20458;-61
2022/11/03 04:41:46;;;;;;;8.47;5.60;;;;;;;;;;5089492;28;20581;-62
2022/11/03 04:44:15;;;;;;;7.00;5.40;;;7.00;1.00;;;;;;5085363;28;20450;-62
2022/11/03 04:46:41;;;;;;;7.53;5.80;;;7.10;1.00;;;;;;5087921;28;20453;-62
2022/11/03 04:49:13;;;;;;;8.27;6.40;;;7.10;1.00;;;;;;5087169;28;20967;-62
2022/11/03 04:51:39;;;;;;;12.60;6.60;;;7.10;1.00;;;;;;5089730;28;20426;-63
2022/11/03 04:54:18;;;;;;;8.73;6.23;;;7.00;1.00;;;;;;5090379;28;20479;-59
2022/11/03 04:56:44;;;;;;;12.10;6.40;;;;;;;;;;5087861;28;20513;-59
2022/11/03 04:59:11;;;;;;;8.80;6.77;;;7.00;1.00;;;;;;5086664;28;20933;-60
2022/11/03 05:01:37;;;;;;;12.73;7.07;;;7.00;1.00;;;;;;5087863;28;20458;-59
2022/11/03 05:04:10;;;;;;;9.60;6.40;;;7.00;1.00;;;;;;5089163;28;21189;-60
2022/11/03 05:06:36;;;;;;;11.43;7.47;;;6.90;1.00;;;;;;5089514;28;20203;-61
2022/11/03 05:09:11;;;;;;;8.07;5.73;;;7.00;1.00;;;;;;5089145;28;20451;-60
2022/11/03 05:11:40;;;;;;;10.97;7.00;;;7.00;1.00;;;;;;5088608;28;20443;-60
2022/11/03 05:14:28;;;;;;;10.97;6.23;;;6.90;1.00;;;;;;5088141;28;20927;-60
2022/11/03 05:16:55;;;;;;;8.23;6.30;;;6.90;1.00;;;;;;5089376;28;20450;-61
2022/11/03 05:19:27;;;;;;;7.00;6.30;;;6.90;1.00;;;;;;5089202;28;20439;-61
2022/11/03 05:21:56;;;;;;;11.50;6.70;;;6.90;1.00;;;;;;5086761;28;20451;-60
2022/11/03 05:24:25;;;;;;;13.30;6.77;;;;;;;;;;5088540;28;20443;-60
2022/11/03 05:26:53;;;;;;;13.77;8.67;;;6.90;1.00;;;;;;5083976;28;20440;-59
2022/11/03 05:29:23;;;;;;;9.47;6.47;;;7.00;1.00;;;;;;5087144;28;20496;-60
2022/11/03 05:31:52;;;;;;;12.20;7.90;;;6.90;1.00;;;;;;5088097;28;20991;-61
2022/11/03 05:34:29;;;;;;;11.00;7.27;;;7.00;1.00;;;;;;5087189;28;20452;-60
2022/11/03 05:37:07;;;;;;;14.10;8.50;;;7.00;1.00;;;;;;5087659;28;20446;-61
2022/11/03 05:39:39;;;;;;;14.73;7.20;;;6.90;1.00;;;;;;5085206;28;20596;-61
2022/11/03 05:42:26;;;;;;;9.60;7.37;;;6.90;1.00;;;;;;5084362;28;20451;-61
2022/11/03 05:44:52;;;;;;;9.77;6.50;;;6.90;1.00;;;;;;5089861;28;20497;-61
2022/11/03 05:47:36;;;;;;;8.53;6.73;;;7.00;1.00;;;;;;5086988;28;20780;-61
2022/11/03 05:50:34;;;;;;;9.47;7.40;;;6.90;1.00;;;;;;5089240;28;20233;-60
2022/11/03 05:53:22;;;;;;;10.27;7.63;;;6.90;1.00;;;;;;5079172;28;20513;-60
2022/11/03 05:55:48;;;;;;;10.20;6.83;;;6.90;1.00;;;;;;5087768;28;20928;-61
2022/11/03 05:58:23;;;;;;;14.70;8.13;;;;;;;;;;5085127;28;20444;-60
2022/11/03 06:00:49;;;;;;;12.87;7.07;;;7.00;1.00;;;;;;5088963;28;20185;-61
2022/11/03 06:03:27;;;;;;;10.50;7.63;;;6.80;1.00;;;;;;5090027;28;21020;-60
2022/11/03 06:05:54;;;;;;;9.97;6.60;;;6.90;1.00;;;;;;5085091;28;20673;-61
2022/11/03 06:08:24;;;;;;;12.83;7.87;;;6.80;1.00;;;;;;5089678;28;20527;-62
2022/11/03 06:10:55;;;;;;;11.90;7.40;;;6.80;1.00;;;;;;5090267;28;20485;-60
2022/11/03 06:13:29;;;;;;;9.90;7.83;;;6.80;1.00;;;;;;5085538;28;21008;-61
2022/11/03 06:16:02;;;;;;;12.03;6.87;;;6.90;1.00;;;;;;5088592;28;21020;-60
2022/11/03 06:18:37;;;;;;;10.53;7.27;;;6.90;1.00;;;;;;5087333;28;20503;-60
2022/11/03 06:21:17;;;;;;;11.23;6.33;;;6.90;1.00;;;;;;5090058;28;20454;-60
2022/11/03 06:23:43;;;;;;;13.30;7.00;;;6.90;1.00;;;;;;5083809;28;20505;-60
2022/11/03 06:26:22;;;;;;;12.37;9.60;;;8.10;1.00;;;;;;5086320;28;20474;-60
2022/11/03 06:28:48;;;;;;;13.30;7.17;;;6.90;1.00;;;;;;5088583;28;20192;-61
2022/11/03 06:31:26;;;;;;;10.30;7.23;;;6.90;1.00;;;;;;5089455;28;20502;-62
2022/11/03 06:33:53;;;;;;;11.30;6.63;;;6.90;1.00;;;;;;5090502;28;20452;-61
2022/11/03 06:36:22;;;;;;;9.10;7.00;;;6.90;1.00;;;;;;5090259;28;20450;-62
2022/11/03 06:38:53;;;;;;;12.17;7.00;;;6.90;1.00;;;;;;5089032;28;20445;-61
2022/11/03 06:41:28;;;;;;;11.73;7.20;;;6.90;1.00;;;;;;5089640;28;20454;-61
2022/11/03 06:43:56;;;;;;;9.90;6.83;;;7.00;1.00;;;;;;5090205;28;21031;-61
2022/11/03 06:46:24;;;;;;;9.23;7.77;;;7.00;1.00;;;;;;5088995;28;20467;-62
2022/11/03 06:48:52;;;;;;;11.40;9.50;;;7.00;1.00;;;;;;5089986;28;20451;-61
2022/11/03 06:51:23;;;;;;;13.60;8.80;;;7.00;1.00;;;;;;5088776;28;20476;-61
2022/11/03 06:53:51;;;;;;;15.60;10.90;;;7.00;1.00;;;;;;5087016;28;20471;-60
2022/11/03 06:56:21;;;;;;;24.23;8.27;;;7.10;1.00;;;;;;5085996;28;20447;-60
2022/11/03 06:58:48;;;;;;;9.60;7.73;;;7.20;1.00;;;;;;5085098;28;20587;-60
2022/11/03 07:01:18;;;;;;;9.67;7.27;;;7.40;1.00;;;;;;5088446;28;20426;-60
2022/11/03 07:03:44;;;;;;;12.90;7.90;;;7.40;1.00;;;;;;5087947;28;20446;-61
2022/11/03 07:06:10;;;;;;;12.77;7.07;;;7.40;1.00;;;;;;5087411;28;20795;-60
2022/11/03 07:08:46;;;;;;;11.67;6.93;;;7.60;1.00;;;;;;5086292;28;20593;-59
2022/11/03 07:11:29;;;;;;;12.67;7.73;;;7.70;1.00;;;;;;5087813;28;20674;-61
2022/11/03 07:14:09;;;;;;;15.43;7.17;;;7.80;1.00;;;;;;5086456;28;20522;-60
2022/11/03 07:16:40;;;;;;;10.00;6.20;;;8.00;1.00;;;;;;5086875;28;20448;-60
2022/11/03 07:19:17;;;;;;;9.37;6.53;;;8.10;1.00;;;;;;5088655;28;20470;-60
2022/11/03 07:21:50;;;;;;;6.97;5.73;;;8.30;1.00;;;;;;5088691;28;20431;-59
2022/11/03 07:24:19;;;;;;;14.30;7.20;;;8.50;1.00;;;;;;5088689;28;20510;-60
2022/11/03 07:26:45;;;;;;;13.57;6.67;;;8.60;1.00;;;;;;5093101;28;20804;-60
2022/11/03 07:29:20;;;;;;;12.13;6.27;;;8.70;1.00;;;;;;5088293;28;20542;-61
2022/11/03 07:31:47;;;;;;;14.93;6.77;;;8.90;1.00;;;;;;5093346;28;20224;-60
2022/11/03 07:34:19;;;;;;;7.53;5.40;;;9.10;1.00;;;;;;5090834;28;20428;-60
2022/11/03 07:36:45;;;;;;;8.07;4.90;;;9.20;1.00;;;;;;5091994;28;20453;-60
2022/11/03 07:39:17;;;;;;;10.37;6.50;;;9.30;1.00;;;;;;5089488;28;20946;-60
2022/11/03 07:41:43;;;;;;;8.00;5.83;;;9.50;1.00;;;;;;5093019;28;20919;-60
2022/11/03 07:44:14;;;;;;;7.37;6.03;;;9.60;1.00;;;;;;5088948;28;20446;-60
2022/11/03 07:46:42;;;;;;;9.93;5.53;;;9.70;1.00;;;;;;5091661;28;20482;-59
2022/11/03 07:49:23;;;;;;;9.43;5.20;;;9.80;1.00;;;;;;5089781;28;20509;-59
2022/11/03 07:51:49;;;;;;;5.60;4.53;;;10.00;1.00;;;;;;5092897;28;20506;-61
2022/11/03 07:54:22;;;;;;;6.23;4.40;;;10.20;1.00;;;;;;5092325;28;20460;-60
2022/11/03 07:56:58;;;;;;;8.60;4.50;;;10.30;1.00;;;;;;5088492;28;20501;-61
2022/11/03 07:59:35;;;;;;;9.70;3.93;;;10.50;1.00;;;;;;5088460;28;20421;-61
2022/11/03 08:02:01;;;;;;;6.17;3.97;;;10.70;1.00;;;;;;5089774;28;20516;-60
2022/11/03 08:04:32;;;;;;;5.77;4.47;;;10.80;1.00;;;;;;5088302;28;20453;-60
2022/11/03 08:06:58;;;;;;;8.97;4.07;;;10.90;1.00;;;;;;5091704;28;20453;-59
2022/11/03 08:09:23;;;;;;;8.40;4.47;;;11.10;1.00;;;;;;5091520;28;20446;-59
2022/11/03 08:11:50;;;;;;;11.27;4.47;;;11.20;1.00;;;;;;5087640;28;20189;-59
2022/11/03 08:14:16;;;;;;;8.73;4.40;;;;;;;;;;5088903;28;20181;-60
2022/11/03 08:16:42;;;;;;;7.63;4.40;;;11.40;1.00;;;;;;5088134;28;20455;-60
2022/11/03 08:19:07;;;;;;;5.80;4.20;;;11.50;1.00;;;;;;5091687;28;20753;-58
2022/11/03 08:21:33;;;;;;;8.17;3.80;;;11.60;1.00;;;;;;5091473;28;20236;-60
2022/11/03 08:23:58;;;;;;;6.93;4.40;;;11.70;1.00;;;;;;5089234;28;20197;-61
2022/11/03 08:26:24;;;;;;;7.43;4.20;;;12.00;1.00;;;;;;5090709;28;20190;-61
2022/11/03 08:28:50;;;;;;;7.57;4.47;;;12.20;1.00;;;;;;5090781;28;20187;-61
2022/11/03 08:31:15;;;;;;;5.10;3.80;;;12.20;1.00;;;;;;5085109;28;20236;-63
2022/11/03 08:33:44;;;;;;;9.30;3.83;;;12.20;1.00;;;;;;5086588;28;20286;-60
2022/11/03 08:36:10;;;;;;;7.23;4.43;;;;;;;;;;5088862;28;20558;-60
2022/11/03 08:38:36;;;;;;;6.13;3.50;;;12.10;1.00;;;;;;5090678;28;20441;-60
2022/11/03 08:41:02;;;;;;;10.47;4.53;;;12.00;1.00;;;;;;5088466;28;20820;-59
2022/11/03 08:43:28;;;;;;;5.50;3.50;;;12.10;1.00;;;;;;5090244;28;20434;-60
2022/11/03 08:45:54;;;;;;;8.00;3.57;;;;;;;;;;5091582;28;20406;-59
2022/11/03 08:48:21;;;;;;;7.73;4.03;;;12.00;1.00;;;;;;5092007;28;20440;-59
2022/11/03 08:50:49;;;;;;;7.53;3.83;;;12.20;1.00;;;;;;5091580;28;20470;-60
2022/11/03 08:53:15;;;;;;;7.07;3.70;;;12.30;1.00;;;;;;5091709;28;20502;-60
2022/11/03 08:55:41;;;;;;;8.30;4.00;;;12.40;1.00;;;;;;5091051;28;20497;-60
2022/11/03 08:58:06;;;;;;;8.83;3.80;;;12.40;1.00;;;;;;5091553;28;20451;-59
2022/11/03 09:00:32;;;;;;;5.10;3.63;;;12.50;1.00;;;;;;5090174;28;20277;-59
2022/11/03 09:02:58;;;;;;;5.00;4.40;;;12.60;1.00;;;;;;5091278;28;20182;-60
2022/11/03 09:05:23;;;;;;;6.87;4.00;;;12.80;1.00;;;;;;5090224;28;20186;-59
2022/11/03 09:07:49;;;;;;;12.10;3.93;;;12.80;1.00;;;;;;5091140;28;20430;-59
2022/11/03 09:10:15;;;;;;;5.33;2.87;;;12.90;1.00;;;;;;5091287;28;20675;-59
2022/11/03 09:12:40;;;;;;;6.93;3.07;;;12.80;1.00;;;;;;5091375;28;20297;-59
2022/11/03 09:15:06;;;;;;;14.30;4.00;;;13.00;1.00;;;;;;5090772;28;20234;-59
2022/11/03 09:17:32;;;;;;;6.40;3.20;;;13.10;1.00;;;;;;5091230;28;20208;-59
2022/11/03 09:19:57;;;;;;;8.30;3.73;;;13.10;1.00;;;;;;5090555;28;20413;-60
2022/11/03 09:22:23;;;;;;;12.13;4.20;;;13.20;1.00;;;;;;5091127;28;20666;-58
2022/11/03 09:24:49;;;;;;;5.93;3.00;;;13.30;1.00;;;;;;5090348;28;20191;-59
2022/11/03 09:27:14;;;;;;;6.10;3.30;;;13.40;1.00;;;;;;5090597;28;20193;-59
2022/11/03 09:29:40;;;;;;;5.33;3.10;;;13.50;1.00;;;;;;5090767;28;20300;-59
2022/11/03 09:32:05;;;;;;;5.00;3.23;;;13.60;1.00;;;;;;5091010;28;20186;-60
2022/11/03 09:34:31;;;;;;;6.63;3.17;;;13.70;1.00;;;;;;5090712;28;20191;-59
2022/11/03 09:36:57;;;;;;;10.93;3.70;;;13.70;1.00;;;;;;5090713;28;20175;-59
2022/11/03 09:39:22;;;;;;;6.10;3.30;;;13.80;1.00;;;;;;5090598;28;20196;-59
2022/11/03 09:41:49;;;;;;;5.83;3.40;;;;;;;;;;5090750;28;20619;-59
2022/11/03 09:44:14;;;;;;;6.93;3.67;;;13.90;1.00;;;;;;5090410;28;20602;-60
2022/11/03 09:46:40;;;;;;;7.83;3.17;;;14.00;1.00;;;;;;5090385;28;20533;-59
2022/11/03 09:49:06;;;;;;;6.63;3.40;;;14.00;1.00;;;;;;5090263;28;20735;-58
2022/11/03 09:51:34;;;;;;;4.70;3.30;;;14.10;1.00;;;;;;5090337;28;20239;-60
2022/11/03 09:54:03;;;;;;;11.23;3.43;;;14.30;1.00;;;;;;5090283;28;20746;-60
2022/11/03 09:56:29;;;;;;;7.23;3.10;;;14.40;1.00;;;;;;5089242;28;20845;-60
2022/11/03 09:58:55;;;;;;;5.17;3.10;;;14.50;1.00;;;;;;5090115;28;20412;-60
2022/11/03 10:01:22;;;;;;;5.83;3.27;;;14.70;1.00;;;;;;5090277;28;20512;-60
2022/11/03 10:03:47;;;;;;;6.43;3.40;;;14.60;1.00;;;;;;5090519;28;20186;-60
2022/11/03 10:06:15;;;;;;;11.57;3.27;;;14.60;1.00;;;;;;5089087;28;20443;-59
2022/11/03 10:08:44;;;;;;;4.57;2.73;;;14.70;1.00;;;;;;5090327;28;20296;-60
2022/11/03 10:11:10;;;;;;;7.40;3.57;;;14.80;1.00;;;;;;5090206;28;20531;-59
2022/11/03 10:13:44;;;;;;;6.10;3.13;;;14.90;1.00;;;;;;5090007;28;20420;-60
2022/11/03 10:16:15;;;;;;;3.60;2.57;;;14.90;1.00;;;;;;5090219;28;20403;-59
2022/11/03 10:18:42;;;;;;;9.37;3.50;;;15.00;1.00;;;;;;5089758;28;20440;-59
2022/11/03 10:21:25;;;;;;;5.67;2.87;;;15.10;1.00;;;;;;5090129;28;20528;-60
2022/11/03 10:23:51;;;;;;;7.20;3.47;;;15.30;1.00;;;;;;5090531;28;20450;-60
2022/11/03 10:26:20;;;;;;;8.47;4.60;;;15.40;1.00;;;;;;5089985;28;20442;-61
2022/11/03 10:28:59;;;;;;;6.87;2.40;;;15.50;1.00;;;;;;5089900;28;20187;-60
2022/11/03 10:31:40;;;;;;;5.07;2.40;;;15.60;1.00;;;;;;5089613;28;20455;-59
2022/11/03 10:34:33;;;;;;;4.70;2.37;;;15.60;1.00;;;;;;5089815;28;20765;-59
2022/11/03 10:37:24;;;;;;;6.27;2.50;;;15.80;1.00;;;;;;5089956;28;20787;-60
2022/11/03 10:39:55;;;;;;;7.67;2.90;;;15.90;1.00;;;;;;5090285;28;20432;-60
2022/11/03 10:42:24;;;;;;;3.30;2.37;;;15.80;1.00;;;;;;5089927;28;20415;-59
2022/11/03 10:44:52;;;;;;;5.00;2.23;;;15.90;1.00;;;;;;5089096;28;20445;-59
2022/11/03 10:47:31;;;;;;;8.47;2.37;;;15.90;1.00;;;;;;5089582;28;20491;-60
2022/11/03 10:49:57;;;;;;;5.10;1.80;;;;;;;;;;5089422;28;20969;-60
2022/11/03 10:52:25;;;;;;;7.77;1.97;;;16.00;1.00;;;;;;5089575;28;20490;-60
2022/11/03 10:54:53;;;;;;;3.40;1.80;;;16.00;1.00;;;;;;5087439;28;20973;-59
2022/11/03 10:57:20;;;;;;;3.40;1.73;;;15.90;1.00;;;;;;5087050;28;20938;-60
2022/11/03 10:59:48;;;;;;;4.00;1.97;;;15.90;1.00;;;;;;5088661;28;20433;-59
2022/11/03 11:02:24;;;;;;;5.57;1.70;;;15.90;1.00;;;;;;5089546;28;20421;-60
2022/11/03 11:04:58;;;;;;;4.07;1.83;;;16.00;1.00;;;;;;5089226;28;20934;-60
2022/11/03 11:07:30;;;;;;;2.90;1.60;;;16.00;1.00;;;;;;5089537;28;20775;-60
2022/11/03 11:10:05;;;;;;;4.40;2.10;;;16.00;1.00;;;;;;5089367;28;20488;-60
2022/11/03 11:12:30;;;;;;;3.10;2.00;;;16.10;1.00;;;;;;5089397;28;20490;-59
2022/11/03 11:14:58;;;;;;;4.73;2.40;;;16.20;1.00;;;;;;5089035;28;20411;-60
2022/11/03 11:17:48;;;;;;;4.70;2.20;;;16.30;1.00;;;;;;5089320;28;20182;-60
2022/11/03 11:20:25;;;;;;;8.33;2.57;;;16.40;1.00;;;;;;5088505;28;20499;-60
2022/11/03 11:22:51;;;;;;;3.00;1.90;;;16.40;1.00;;;;;;5088784;28;20431;-58
2022/11/03 11:25:17;;;;;;;5.70;1.60;;;16.40;1.00;;;;;;5087911;28;20508;-60
2022/11/03 11:27:54;;;;;;;4.60;2.20;;;16.50;1.00;;;;;;5089223;28;20186;-59
2022/11/03 11:30:20;;;;;;;3.60;1.90;;;16.50;1.00;;;;;;5089375;28;20524;-59
2022/11/03 11:32:48;;;;;;;2.70;1.83;;;16.50;1.00;;;;;;5089489;28;20492;-59
2022/11/03 11:35:37;;;;;;;10.07;2.27;;;16.60;1.00;;;;;;5089303;28;20206;-59
2022/11/03 11:38:40;;;;;;;4.97;2.47;;;16.70;1.00;;;;;;5088557;28;20969;-60
2022/11/03 11:41:06;;;;;;;4.60;2.13;;;;;;;;;;5088993;28;20437;-59
2022/11/03 11:43:32;;;;;;;8.00;2.60;;;16.70;1.00;;;;;;5088988;28;20515;-59
2022/11/03 11:46:39;;;;;;;3.80;2.20;;;16.70;1.00;;;;;;5088997;28;20488;-59
2022/11/03 11:49:08;;;;;;;6.33;2.27;;;16.60;1.00;;;;;;5083583;28;20192;-60
2022/11/03 11:51:35;;;;;;;4.50;2.40;;;16.50;1.00;;;;;;5089140;28;20435;-60
2022/11/03 11:54:05;;;;;;;7.10;2.53;;;16.50;1.00;;;;;;5089067;28;20450;-60
2022/11/03 11:56:31;;;;;;;9.87;2.30;;;16.40;1.00;;;;;;5089029;28;20404;-60
2022/11/03 11:58:57;;;;;;;5.80;2.53;;;16.50;1.00;;;;;;5088875;28;20911;-59
2022/11/03 12:01:34;;;;;;;5.73;2.90;;;16.50;1.00;;;;;;5088922;28;20440;-59
2022/11/03 12:04:16;;;;;;;7.30;2.27;;;16.50;1.00;;;;;;5088800;28;21213;-60
2022/11/03 12:06:42;;;;;;;2.93;2.27;;;;;;;;;;5089058;28;20806;-60
2022/11/03 12:09:22;;;;;;;3.73;2.20;;;16.60;1.00;;;;;;5088465;28;20478;-60
2022/11/03 12:11:49;;;;;;;9.60;3.13;;;16.60;1.00;;;;;;5091176;28;20474;-59
2022/11/03 12:14:31;;;;;;;9.60;2.80;;;16.50;1.00;;;;;;5092614;28;20970;-60
2022/11/03 12:17:18;;;;;;;5.00;2.73;;;16.30;1.00;;;;;;5092895;28;21061;-59
2022/11/03 12:19:44;;;;;;;3.67;2.37;;;16.30;1.00;;;;;;5092181;28;20454;-60
2022/11/03 12:22:40;;;;;;;4.73;2.70;;;16.30;1.00;;;;;;5092438;28;20447;-60
2022/11/03 12:25:26;;;;;;;8.90;2.97;;;16.50;1.00;;;;;;5087649;28;20424;-60
2022/11/03 12:27:51;;;;;;;2.83;2.20;;;16.50;1.00;;;;;;5091974;28;20889;-59
2022/11/03 12:30:18;;;;;;;3.67;2.40;;;16.40;1.00;;;;;;5092389;28;20434;-60
2022/11/03 12:32:44;;;;;;;6.93;2.90;;;16.40;1.00;;;;;;5091999;28;20541;-59
2022/11/03 12:35:12;;;;;;;3.90;2.80;;;16.40;1.00;;;;;;5091788;28;20587;-59
2022/11/03 12:37:38;;;;;;;6.47;2.57;;;16.60;1.00;;;;;;5092107;28;20420;-60
2022/11/03 12:40:05;;;;;;;8.07;2.60;;;16.60;1.00;;;;;;5092553;28;20525;-60
2022/11/03 12:42:31;;;;;;;4.67;2.83;;;16.60;1.00;;;;;;5091920;28;20433;-60
2022/11/03 12:44:56;;;;;;;5.43;2.63;;;16.50;1.00;;;;;;5092021;28;20599;-59
2022/11/03 12:47:22;;;;;;;7.30;3.90;;;16.50;1.00;;;;;;5091989;28;20650;-60
2022/11/03 12:49:48;;;;;;;5.43;3.43;;;16.50;1.00;;;;;;5091675;28;20211;-60
2022/11/03 12:52:14;;;;;;;9.33;3.20;;;16.60;1.00;;;;;;5091833;28;20198;-59
2022/11/03 12:54:41;;;;;;;4.77;3.60;;;16.60;1.00;;;;;;5091599;28;20218;-60
2022/11/03 12:57:06;;;;;;;8.53;3.20;;;16.60;1.00;;;;;;5091707;28;20406;-61
2022/11/03 12:59:32;;;;;;;5.90;3.70;;;16.50;1.00;;;;;;5091185;28;20415;-60
2022/11/03 13:01:57;;;;;;;7.57;3.50;;;16.50;1.00;;;;;;5091214;28;20716;-61
2022/11/03 13:04:23;;;;;;;6.70;4.10;;;16.60;1.00;;;;;;5091513;28;20178;-60
2022/11/03 13:06:48;;;;;;;6.77;4.10;;;16.50;1.00;;;;;;5091142;28;20248;-60
2022/11/03 13:09:14;;;;;;;9.93;3.87;;;16.40;1.00;;;;;;5091461;28;20257;-59
2022/11/03 13:14:25;;;;;;;7.77;4.50;;;16.00;1.00;;;;;;5091501;28;20183;-59
2022/11/03 13:16:51;;;;;;;8.27;6.40;;;16.00;1.00;;;;;;5090761;28;20477;-60
2022/11/03 13:19:16;;;;;;;8.23;4.50;;;16.00;1.00;;;;;;5091031;28;20433;-61
2022/11/03 13:21:42;;;;;;;7.03;4.47;;;15.90;1.00;;;;;;5090987;28;20188;-59
2022/11/03 13:24:07;;;;;;;8.67;4.00;;;15.90;1.00;;;;;;5090460;28;20180;-60
2022/11/03 13:26:34;;;;;;;5.93;4.97;;;;;;;;;;5091156;28;20585;-61
2022/11/03 13:28:59;;;;;;;7.50;4.30;;;15.80;1.00;;;;;;5091014;28;20265;-61
2022/11/03 13:31:25;;;;;;;9.40;4.53;;;;;;;;;;5090953;28;20475;-60
2022/11/03 13:33:51;;;;;;;6.87;4.10;;;15.90;1.00;;;;;;5091232;28;20188;-60
2022/11/03 13:36:17;;;;;;;6.73;4.43;;;15.90;1.00;;;;;;5090963;28;20461;-59
2022/11/03 13:38:42;;;;;;;7.03;4.27;;;15.80;1.00;;;;;;5091223;28;20273;-60
2022/11/03 13:41:08;;;;;;;7.30;4.57;;;15.70;1.00;;;;;;5090880;28;20203;-61